Time;durP1;ratioP1;P1;durP2;ratioP2;P2;SDS_P1;SDS_P2;PMS_P1;PMS_P2;Temp;Humidity;BMP_temperature;BMP_pressure;BME280_temperature;BME280_humidity;BME280_pressure;Samples;Min_cycle;Max_cycle;Signal;HPM_P1;HPM_P2
2022/11/10 00:02:06;;;;;;;10.78;6.65;;;;;;;6.63;73.89;101803.00;1713423;82;27518;-60
2022/11/10 00:04:52;;;;;;;15.30;7.03;;;;;;;6.64;73.75;101796.70;1736405;82;26085;-60
2022/11/10 00:07:37;;;;;;;11.90;6.95;;;;;;;6.67;73.79;101800.06;1736929;82;25735;-61
2022/11/10 00:10:23;;;;;;;15.15;7.62;;;;;;;6.72;73.70;101799.32;1737270;82;25903;-61
2022/11/10 00:13:09;;;;;;;16.73;8.73;;;;;;;6.74;73.63;101793.91;1736919;81;25901;-61
2022/11/10 00:19:01;;;;;;;20.20;8.50;;;;;;;6.78;73.32;101791.44;1721051;80;25842;-61
2022/11/10 00:21:47;;;;;;;15.95;8.03;;;;;;;6.66;72.99;101793.48;1721476;82;25640;-61
2022/11/10 00:24:32;;;;;;;13.55;7.97;;;;;;;6.57;72.81;101791.71;1735490;82;25885;-61
2022/11/10 00:27:17;;;;;;;13.18;7.80;;;;;;;6.52;73.03;101790.23;1735098;82;26397;-61
2022/11/10 00:30:05;;;;;;;26.27;7.92;;;;;;;6.47;72.88;101786.94;1735317;82;27492;-60
2022/11/10 00:32:50;;;;;;;14.95;8.03;;;;;;;6.39;72.87;101788.22;1731808;82;25803;-61
2022/11/10 00:35:35;;;;;;;17.50;8.73;;;;;;;6.31;72.81;101787.78;1727200;82;25752;-61
2022/11/10 00:38:20;;;;;;;14.10;7.20;;;;;;;6.25;72.99;101790.30;1730897;82;25864;-61
2022/11/10 00:41:06;;;;;;;19.35;8.35;;;;;;;6.21;73.01;101791.44;1735463;82;25716;-61
2022/11/10 00:43:52;;;;;;;14.53;8.13;;;;;;;6.18;73.13;101787.58;1734987;82;27564;-61
2022/11/10 00:46:37;;;;;;;12.63;8.10;;;;;;;6.13;73.51;101790.11;1735435;82;25636;-61
2022/11/10 00:49:22;;;;;;;20.08;7.95;;;;;;;6.08;73.61;101781.00;1735446;81;25708;-61
2022/11/10 00:52:07;;;;;;;14.07;8.85;;;;;;;6.06;73.67;101788.23;1735388;82;25790;-61
2022/11/10 00:54:52;;;;;;;12.37;7.40;;;;;;;6.04;74.17;101786.14;1735095;82;25963;-61
2022/11/10 00:57:38;;;;;;;12.70;7.30;;;;;;;6.01;74.61;101788.47;1735536;82;27495;-61
2022/11/10 01:00:23;;;;;;;15.25;7.28;;;;;;;5.98;74.58;101787.74;1736615;82;25756;-60
2022/11/10 01:03:15;;;;;;;17.90;8.33;;;;;;;5.99;74.85;101786.37;1727137;82;25704;-61
2022/11/10 01:06:13;;;;;;;14.87;7.78;;;;;;;6.00;75.19;101779.22;1739410;82;25784;-61
2022/11/10 01:08:58;;;;;;;13.98;7.12;;;;;;;6.04;75.44;101782.13;1739580;81;25769;-60
2022/11/10 01:11:43;;;;;;;16.82;6.90;;;;;;;6.07;75.46;101773.48;1738401;81;28554;-60
2022/11/10 01:14:28;;;;;;;13.62;6.65;;;;;;;6.14;75.77;101771.80;1737938;82;26084;-60
2022/11/10 01:17:14;;;;;;;13.93;7.87;;;;;;;6.20;76.29;101783.48;1736397;82;26448;-61
2022/11/10 01:19:59;;;;;;;13.55;6.50;;;;;;;6.23;76.24;101769.48;1705944;84;26008;-61
2022/11/10 01:22:45;;;;;;;16.45;7.55;;;;;;;6.29;76.22;101765.61;1705211;84;25713;-60
2022/11/10 01:25:30;;;;;;;20.60;6.87;;;;;;;6.26;75.93;101778.67;1705602;83;27482;-60
2022/11/10 01:28:15;;;;;;;13.95;7.17;;;;;;;6.26;76.15;101777.34;1727845;82;25729;-60
2022/11/10 01:31:11;;;;;;;21.37;8.08;;;;;;;6.32;76.41;101766.80;1737350;82;26511;-60
2022/11/10 01:33:59;;;;;;;16.52;7.30;;;;;;;6.33;76.32;101768.98;1737207;82;25892;-60
2022/11/10 01:36:44;;;;;;;15.23;6.72;;;;;;;6.38;76.32;101773.62;1737484;82;26421;-60
2022/11/10 01:39:29;;;;;;;10.55;6.95;;;;;;;6.42;76.32;101772.48;1737425;82;27547;-60
2022/11/10 01:42:14;;;;;;;15.05;6.65;;;;;;;6.46;76.14;101766.03;1737515;81;25793;-60
2022/11/10 01:45:24;;;;;;;12.43;7.12;;;;;;;6.38;75.90;101773.62;1739410;82;25921;-60
2022/11/10 01:48:27;;;;;;;10.65;6.75;;;;;;;6.34;75.84;101780.94;1739325;82;27962;-60
2022/11/10 01:51:42;;;;;;;11.33;6.75;;;;;;;6.36;76.02;101775.50;1739403;82;25802;-60
2022/11/10 01:54:32;;;;;;;11.18;6.12;;;;;;;6.38;76.13;101775.80;1739332;82;27541;-60
2022/11/10 01:57:18;;;;;;;12.47;6.30;;;;;;;6.37;76.08;101774.07;1739289;82;25768;-61
2022/11/10 02:00:05;;;;;;;13.80;6.15;;;;;;;6.36;76.18;101777.72;1739553;82;25800;-61
2022/11/10 02:03:21;;;;;;;12.43;5.90;;;;;;;6.33;76.01;101782.34;1737379;82;25814;-61
2022/11/10 02:06:07;;;;;;;12.68;6.67;;;;;;;6.27;75.87;101774.21;1737529;82;25737;-61
2022/11/10 02:08:54;;;;;;;10.45;6.25;;;;;;;6.27;75.95;101779.56;1739595;82;27526;-61
2022/11/10 02:11:41;;;;;;;17.73;6.58;;;;;;;6.29;75.80;101783.47;1736988;82;25838;-60
2022/11/10 02:14:27;;;;;;;19.15;6.85;;;;;;;6.31;75.92;101780.25;1738691;82;25920;-61
2022/11/10 02:17:13;;;;;;;11.68;6.55;;;;;;;6.33;75.92;101772.53;1739562;82;26656;-61
2022/11/10 02:20:08;;;;;;;12.03;6.87;;;;;;;6.34;75.88;101782.28;1706434;84;25747;-61
2022/11/10 02:22:53;;;;;;;10.68;5.92;;;;;;;6.32;75.62;101774.81;1706553;84;27486;-61
2022/11/10 02:25:38;;;;;;;18.17;6.30;;;;;;;6.28;75.49;101783.08;1674564;85;26015;-61
2022/11/10 02:28:26;;;;;;;13.22;6.65;;;;;;;6.28;75.52;101777.73;1673630;85;25737;-61
2022/11/10 02:31:11;;;;;;;9.75;6.10;;;;;;;6.29;75.54;101783.47;1716278;82;26423;-61
2022/11/10 02:33:57;;;;;;;11.65;6.45;;;;;;;6.24;75.59;101779.22;1737862;82;25731;-61
2022/11/10 02:36:42;;;;;;;20.15;9.05;;;;;;;6.23;75.61;101782.84;1736547;82;27659;-61
2022/11/10 02:39:27;;;;;;;11.48;6.12;;;;;;;6.23;75.56;101784.17;1738004;82;25755;-61
2022/11/10 02:42:13;;;;;;;9.18;7.05;;;;;;;6.19;75.26;101782.63;1736662;82;25823;-61
2022/11/10 02:44:58;;;;;;;9.60;6.70;;;;;;;6.13;74.90;101779.42;1737320;82;25791;-61
2022/11/10 02:47:43;;;;;;;11.05;7.03;;;;;;;6.06;74.68;101789.56;1736966;82;26188;-61
2022/11/10 02:50:28;;;;;;;13.58;6.55;;;;;;;5.95;74.42;101790.99;1738210;82;27497;-61
2022/11/10 02:53:13;;;;;;;10.40;6.97;;;;;;;5.89;74.30;101798.45;1737490;82;25791;-61
2022/11/10 02:55:59;;;;;;;12.85;6.50;;;;;;;5.79;74.30;101794.05;1738430;82;25852;-62
2022/11/10 02:58:44;;;;;;;17.05;7.25;;;;;;;5.70;74.09;101793.19;1735639;82;25797;-61
2022/11/10 03:01:31;;;;;;;16.48;7.00;;;;;;;5.62;74.08;101796.28;1735850;82;25538;-61
2022/11/10 03:04:17;;;;;;;12.05;6.40;;;;;;;5.55;74.02;101794.88;1726362;82;27543;-61
2022/11/10 03:07:02;;;;;;;14.93;8.28;;;;;;;5.48;74.07;101791.64;1735700;82;25829;-60
2022/11/10 03:09:47;;;;;;;10.82;6.62;;;;;;;5.40;74.15;101787.16;1737078;82;25833;-60
2022/11/10 03:12:33;;;;;;;13.08;6.58;;;;;;;5.37;74.19;101797.98;1729388;82;25970;-60
2022/11/10 03:15:18;;;;;;;13.90;7.72;;;;;;;5.29;74.07;101795.23;1718703;82;25721;-60
2022/11/10 03:18:04;;;;;;;12.47;7.55;;;;;;;5.21;74.01;101794.75;1730972;80;27544;-60
2022/11/10 03:20:50;;;;;;;20.05;7.22;;;;;;;5.15;74.10;101792.41;1774257;80;25802;-60
2022/11/10 03:23:35;;;;;;;10.40;6.67;;;;;;;5.13;74.37;101791.61;1760371;80;25827;-61
2022/11/10 03:26:21;;;;;;;13.90;6.72;;;;;;;5.08;74.42;101794.50;1746566;82;25859;-61
2022/11/10 03:29:06;;;;;;;15.20;6.83;;;;;;;5.10;74.95;101793.08;1746508;82;27290;-61
2022/11/10 03:31:52;;;;;;;11.33;6.95;;;;;;;5.13;74.95;101788.94;1746527;82;27511;-61
2022/11/10 03:34:37;;;;;;;11.40;6.28;;;;;;;5.15;75.06;101795.92;1746391;82;25747;-60
2022/11/10 03:37:22;;;;;;;9.10;6.20;;;;;;;5.17;75.07;101794.05;1726662;82;25733;-60
2022/11/10 03:40:09;;;;;;;11.08;6.97;;;;;;;5.20;75.29;101790.36;1746568;81;26365;-61
2022/11/10 03:42:55;;;;;;;8.65;5.35;;;;;;;5.21;75.19;101798.76;1746726;82;25671;-60
2022/11/10 03:45:44;;;;;;;9.98;6.08;;;;;;;5.20;75.20;101794.36;1746520;81;27483;-60
2022/11/10 03:48:29;;;;;;;10.08;7.08;;;;;;;5.25;75.52;101792.80;1746613;82;25668;-60
2022/11/10 03:51:14;;;;;;;13.15;6.67;;;;;;;5.32;75.73;101794.20;1746508;81;25785;-60
2022/11/10 03:54:00;;;;;;;12.18;6.30;;;;;;;5.33;75.35;101793.27;1746400;82;25843;-60
2022/11/10 03:56:45;;;;;;;14.45;6.83;;;;;;;5.30;75.24;101800.09;1746723;82;25831;-60
2022/11/10 03:59:31;;;;;;;10.00;6.47;;;;;;;5.30;75.27;101797.42;1748127;82;27527;-61
2022/11/10 04:02:17;;;;;;;15.05;6.58;;;;;;;5.29;75.32;101801.05;1748326;81;25756;-61
2022/11/10 04:15:40;;;;;;;15.05;6.87;;;;;;;5.37;75.46;101788.19;1737237;82;25510;-60
2022/11/10 04:17:08;;;;;;;18.37;6.83;;;;;;;5.41;75.42;101796.42;1735241;82;26219;-61
2022/11/10 04:19:54;;;;;;;13.53;6.15;;;;;;;5.39;75.25;101794.77;1763689;81;25846;-61
2022/11/10 04:26:27;;;;;;;14.40;7.37;;;;;;;5.35;75.37;101807.41;1765992;81;25779;-61
2022/11/10 04:28:30;;;;;;;15.95;7.08;;;;;;;5.39;75.70;101801.45;1765893;81;27709;-61
2022/11/10 04:31:18;;;;;;;15.58;7.12;;;;;;;5.41;75.74;101805.76;1745320;81;25754;-61
2022/11/10 04:34:06;;;;;;;13.28;6.55;;;;;;;5.41;75.52;101807.58;1735419;82;25790;-61
2022/11/10 04:36:51;;;;;;;12.55;6.70;;;;;;;5.40;75.53;101812.52;1735130;82;25853;-61
2022/11/10 04:39:36;;;;;;;12.88;6.83;;;;;;;5.45;75.60;101817.14;1735177;82;25742;-61
2022/11/10 04:42:21;;;;;;;19.40;8.25;;;;;;;5.42;75.29;101820.83;1735393;82;28172;-61
2022/11/10 04:45:08;;;;;;;17.73;7.70;;;;;;;5.37;75.08;101825.55;1735367;82;26499;-61
2022/11/10 04:47:53;;;;;;;19.82;7.17;;;;;;;5.37;75.27;101818.00;1735090;82;25784;-61
2022/11/10 04:50:38;;;;;;;16.02;8.78;;;;;;;5.36;75.14;101822.48;1737189;82;26424;-60
2022/11/10 04:53:24;;;;;;;13.60;7.45;;;;;;;5.36;75.32;101821.59;1736437;82;25796;-61
2022/11/10 04:56:22;;;;;;;22.48;7.65;;;;;;;5.39;75.49;101825.46;1735627;82;29657;-61
2022/11/10 04:59:07;;;;;;;24.87;9.50;;;;;;;5.40;75.68;101824.53;1736801;82;25764;-61
2022/11/10 05:01:54;;;;;;;16.02;8.90;;;;;;;5.42;75.28;101825.32;1735050;82;25747;-61
2022/11/10 05:04:40;;;;;;;25.62;9.35;;;;;;;5.34;75.05;101837.70;1734969;81;25878;-60
2022/11/10 05:07:25;;;;;;;17.15;7.53;;;;;;;5.31;75.11;101838.72;1754883;81;25713;-61
2022/11/10 05:10:10;;;;;;;19.15;8.78;;;;;;;5.28;75.02;101833.52;1756001;81;27514;-61
2022/11/10 05:12:56;;;;;;;26.85;9.13;;;;;;;5.23;74.88;101845.36;1755804;81;25758;-61
2022/11/10 05:15:42;;;;;;;26.80;9.65;;;;;;;5.13;75.06;101849.80;1755542;81;25759;-61
2022/11/10 05:18:27;;;;;;;18.82;9.40;;;;;;;5.11;76.01;101854.34;1758486;80;25856;-61
2022/11/10 05:21:12;;;;;;;20.75;9.48;;;;;;;5.09;75.74;101849.58;1749479;81;25964;-61
2022/11/10 05:23:58;;;;;;;24.85;10.00;;;;;;;5.10;76.02;101852.64;1752460;81;27605;-61
2022/11/10 05:26:44;;;;;;;33.30;11.12;;;;;;;5.12;76.08;101861.89;1751965;81;25782;-61
2022/11/10 05:29:29;;;;;;;35.52;10.80;;;;;;;5.13;76.51;101856.48;1752709;81;25487;-60
2022/11/10 05:32:14;;;;;;;26.68;10.72;;;;;;;5.18;76.61;101864.26;1755505;81;26081;-60
2022/11/10 05:34:59;;;;;;;24.72;10.48;;;;;;;5.23;76.81;101860.91;1753872;81;26484;-60
2022/11/10 05:37:45;;;;;;;17.57;10.13;;;;;;;5.27;76.61;101874.48;1753987;81;27476;-61
2022/11/10 05:40:31;;;;;;;24.67;10.08;;;;;;;5.33;76.66;101885.33;1755730;81;26103;-61
2022/11/10 05:43:17;;;;;;;23.07;10.15;;;;;;;5.41;76.67;101886.30;1755942;81;25764;-61
2022/11/10 05:46:02;;;;;;;24.37;10.00;;;;;;;5.51;76.73;101889.37;1755832;81;25825;-59
2022/11/10 05:48:47;;;;;;;34.43;10.30;;;;;;;5.60;76.77;101893.77;1756136;81;25951;-60
2022/11/10 05:51:32;;;;;;;25.45;9.78;;;;;;;5.71;77.15;101895.92;1753068;81;29617;-61
2022/11/10 05:54:17;;;;;;;20.85;9.03;;;;;;;5.84;77.17;101897.50;1752885;81;25955;-61
2022/11/10 05:57:03;;;;;;;21.87;9.30;;;;;;;5.95;77.33;101897.83;1752730;81;25723;-61
2022/11/10 05:59:48;;;;;;;21.97;9.90;;;;;;;6.06;77.43;101901.31;1754900;81;25856;-61
2022/11/10 06:02:34;;;;;;;23.50;10.08;;;;;;;6.21;77.68;101896.98;1755483;81;25770;-60
2022/11/10 06:05:19;;;;;;;20.85;9.15;;;;;;;6.36;77.73;101901.13;1755269;81;27488;-60
2022/11/10 06:08:05;;;;;;;27.42;10.58;;;;;;;6.50;77.88;101910.59;1755353;81;26016;-60
2022/11/10 06:10:50;;;;;;;20.90;10.88;;;;;;;6.66;78.05;101901.28;1755170;81;25734;-61
2022/11/10 06:13:36;;;;;;;31.15;11.35;;;;;;;6.83;78.14;101908.41;1754200;81;25847;-61
2022/11/10 06:16:21;;;;;;;34.53;12.35;;;;;;;6.99;78.19;101911.56;1754521;81;25966;-60
2022/11/10 06:19:06;;;;;;;20.15;11.00;;;;;;;7.15;78.21;101919.13;1755452;80;27493;-61
2022/11/10 06:21:52;;;;;;;21.10;10.30;;;;;;;7.31;78.08;101924.49;1754405;81;25750;-61
2022/11/10 06:24:37;;;;;;;23.32;10.90;;;;;;;7.45;78.11;101925.05;1753862;81;25648;-61
2022/11/10 06:27:23;;;;;;;20.75;10.05;;;;;;;7.59;77.90;101932.75;1754516;81;25794;-61
2022/11/10 06:30:10;;;;;;;29.00;10.13;;;;;;;7.68;77.70;101930.42;1755220;81;25754;-61
2022/11/10 06:32:55;;;;;;;16.00;9.50;;;;;;;7.73;77.32;101930.16;1755607;81;29591;-61
2022/11/10 06:35:40;;;;;;;15.38;9.45;;;;;;;7.82;77.73;101938.12;1754986;81;25775;-61
2022/11/10 06:38:26;;;;;;;20.32;9.25;;;;;;;7.90;77.46;101941.70;1759429;81;25756;-61
2022/11/10 06:41:11;;;;;;;17.67;9.03;;;;;;;8.00;77.52;101938.87;1760768;81;26254;-61
2022/11/10 06:43:57;;;;;;;15.93;9.08;;;;;;;8.14;77.65;101938.90;1761340;81;25903;-61
2022/11/10 06:46:42;;;;;;;39.42;10.75;;;;;;;8.28;77.59;101934.05;1756961;80;27499;-61
2022/11/10 06:49:27;;;;;;;22.07;10.53;;;;;;;8.43;77.54;101933.60;1753970;81;25751;-60
2022/11/10 06:52:13;;;;;;;26.57;9.33;;;;;;;8.52;77.49;101938.89;1750184;80;25416;-61
2022/11/10 06:54:58;;;;;;;25.37;9.60;;;;;;;8.59;77.34;101935.37;1754287;81;25844;-60
2022/11/10 06:57:44;;;;;;;25.05;9.58;;;;;;;8.65;77.40;101943.52;1740399;81;25730;-61
2022/11/10 07:00:30;;;;;;;18.65;9.50;;;;;;;8.69;77.29;101940.55;1752964;81;27538;-61
2022/11/10 07:03:16;;;;;;;21.02;10.13;;;;;;;8.76;77.42;101945.91;1751544;81;25784;-61
2022/11/10 07:06:01;;;;;;;21.15;11.70;;;;;;;8.86;77.50;101942.66;1742072;80;25755;-61
2022/11/10 07:08:47;;;;;;;24.37;11.93;;;;;;;8.89;77.13;101940.64;1734821;82;25803;-61
2022/11/10 07:11:32;;;;;;;25.60;11.30;;;;;;;8.95;77.06;101938.55;1734373;82;26452;-60
2022/11/10 07:14:18;;;;;;;19.67;9.70;;;;;;;9.03;76.86;101938.42;1732344;80;27561;-61
2022/11/10 07:17:03;;;;;;;20.37;9.30;;;;;;;9.03;76.71;101936.23;1767457;80;25811;-61
2022/11/10 07:19:49;;;;;;;14.15;8.78;;;;;;;9.02;76.67;101938.04;1740822;81;25871;-61
2022/11/10 07:22:34;;;;;;;24.10;9.70;;;;;;;9.03;76.49;101940.27;1717548;81;26711;-60
2022/11/10 07:25:20;;;;;;;16.15;10.38;;;;;;;9.04;76.59;101941.99;1736179;81;25468;-60
2022/11/10 07:28:09;;;;;;;15.83;9.53;;;;;;;9.05;76.75;101939.20;1738179;82;28315;-60
2022/11/10 07:30:54;;;;;;;20.97;11.97;;;;;;;9.03;76.62;101942.95;1737239;80;27238;-61
2022/11/10 07:33:39;;;;;;;22.35;10.98;;;;;;;9.08;76.72;101941.70;1754830;81;25797;-60
2022/11/10 07:36:27;;;;;;;29.92;12.75;;;;;;;9.17;76.71;101938.89;1737114;82;25846;-61
2022/11/10 07:39:13;;;;;;;30.88;13.13;;;;;;;9.30;76.94;101939.45;1721038;82;25694;-60
2022/11/10 07:41:58;;;;;;;26.07;12.88;;;;;;;9.41;77.12;101939.63;1727319;81;27500;-61
2022/11/10 07:44:43;;;;;;;35.73;13.62;;;;;;;9.53;77.28;101940.15;1731523;81;26024;-61
2022/11/10 07:47:29;;;;;;;30.27;12.78;;;;;;;9.65;77.17;101937.12;1732043;82;25766;-61
2022/11/10 07:50:16;;;;;;;26.40;11.55;;;;;;;9.78;77.15;101941.20;1741614;80;25854;-60
2022/11/10 07:53:18;;;;;;;19.90;11.25;;;;;;;9.92;76.92;101934.91;1737514;82;25814;-60
2022/11/10 07:56:03;;;;;;;27.40;12.10;;;;;;;10.13;76.83;101935.77;1736741;82;27560;-60
2022/11/10 07:58:48;;;;;;;20.90;10.78;;;;;;;10.28;76.40;101937.40;1737808;82;25731;-61
2022/11/10 08:01:33;;;;;;;25.75;10.55;;;;;;;10.37;76.31;101935.95;1735522;82;25821;-61
2022/11/10 08:04:19;;;;;;;20.62;10.00;;;;;;;10.50;76.08;101937.30;1739158;82;25851;-61
2022/11/10 08:07:04;;;;;;;17.42;10.80;;;;;;;10.57;75.75;101939.94;1772810;80;25822;-60
2022/11/10 08:09:50;;;;;;;21.60;10.80;;;;;;;10.68;75.66;101943.20;1774503;80;29577;-60
2022/11/10 08:12:35;;;;;;;19.75;9.88;;;;;;;10.81;75.34;101945.89;1745008;81;25862;-61
2022/11/10 08:15:21;;;;;;;20.48;11.73;;;;;;;10.93;75.11;101944.18;1772079;80;25814;-63
2022/11/10 08:18:20;;;;;;;19.00;12.33;;;;;;;11.04;74.53;101932.63;1746704;80;25805;-62
2022/11/10 08:21:05;;;;;;;22.58;11.63;;;;;;;11.19;74.50;101934.70;1740662;82;26063;-62
2022/11/10 08:23:51;;;;;;;31.73;12.70;;;;;;;11.30;73.87;101934.75;1743437;81;27567;-62
2022/11/10 08:26:36;;;;;;;20.30;12.07;;;;;;;11.33;73.41;101937.73;1743232;82;25909;-62
2022/11/10 08:29:21;;;;;;;24.87;12.90;;;;;;;11.35;73.08;101940.69;1743312;82;25793;-62
2022/11/10 08:32:06;;;;;;;28.40;12.93;;;;;;;11.40;73.02;101943.89;1742711;80;25857;-62
2022/11/10 08:34:51;;;;;;;29.57;13.58;;;;;;;11.50;72.96;101940.52;1743275;82;26484;-62
2022/11/10 08:37:38;;;;;;;35.25;14.13;;;;;;;11.59;72.84;101946.10;1722797;82;27464;-62
2022/11/10 08:40:26;;;;;;;31.25;16.60;;;;;;;11.71;72.62;101947.02;1721790;82;25830;-62
2022/11/10 08:43:13;;;;;;;26.20;14.98;;;;;;;12.13;72.31;101947.09;1744477;82;25804;-62
2022/11/10 08:46:00;;;;;;;37.80;15.80;;;;;;;12.72;71.75;101943.91;1743331;82;25936;-62
2022/11/10 08:48:45;;;;;;;33.73;14.55;;;;;;;13.08;70.67;101941.44;1743838;80;25774;-62
2022/11/10 08:51:30;;;;;;;30.25;14.73;;;;;;;13.30;70.05;101946.47;1744653;82;27638;-61
2022/11/10 08:54:15;;;;;;;29.18;15.25;;;;;;;13.82;68.60;101933.70;1743726;82;27194;-61
2022/11/10 08:57:01;;;;;;;21.57;13.32;;;;;;;14.26;68.03;101946.64;1743757;82;25792;-61
2022/11/10 08:59:46;;;;;;;29.57;14.13;;;;;;;15.06;65.08;101948.80;1743062;80;27970;-62
2022/11/10 09:02:31;;;;;;;22.27;12.18;;;;;;;15.32;65.15;101943.25;1744448;82;25819;-62
2022/11/10 09:05:17;;;;;;;22.73;12.63;;;;;;;15.61;62.90;101946.53;1743909;80;27480;-61
2022/11/10 09:08:04;;;;;;;25.68;12.70;;;;;;;15.73;60.85;101945.05;1735942;82;25673;-61
2022/11/10 09:10:50;;;;;;;23.10;13.30;;;;;;;15.92;60.25;101945.06;1736727;82;25480;-61
2022/11/10 09:13:35;;;;;;;24.50;13.18;;;;;;;15.93;60.00;101945.94;1725994;83;25799;-61
2022/11/10 09:16:21;;;;;;;24.35;14.60;;;;;;;15.85;61.15;101941.22;1729397;82;25394;-61
2022/11/10 09:19:06;;;;;;;25.17;14.73;;;;;;;15.72;59.82;101940.62;1735319;81;27485;-61
2022/11/10 09:21:51;;;;;;;29.23;14.07;;;;;;;15.58;58.84;101941.38;1734995;82;25743;-61
2022/11/10 09:24:37;;;;;;;18.87;13.43;;;;;;;15.59;59.39;101936.31;1734791;82;25788;-61
2022/11/10 09:27:22;;;;;;;29.42;14.78;;;;;;;15.64;59.92;101937.24;1735005;82;25968;-62
2022/11/10 09:30:09;;;;;;;27.32;15.05;;;;;;;15.91;59.06;101940.63;1735035;82;25743;-61
2022/11/10 09:32:57;;;;;;;23.20;14.28;;;;;;;15.75;58.83;101939.83;1736766;81;27477;-61
2022/11/10 09:35:42;;;;;;;24.57;15.15;;;;;;;15.68;57.71;101933.75;1737043;82;25266;-61
2022/11/10 09:38:28;;;;;;;21.42;14.33;;;;;;;15.82;57.93;101929.28;1736640;82;25468;-61
2022/11/10 09:41:14;;;;;;;30.72;14.55;;;;;;;15.94;57.54;101927.30;1731404;81;26444;-61
2022/11/10 09:44:19;;;;;;;23.00;13.93;;;;;;;15.80;56.99;101932.63;1698583;84;25751;-61
2022/11/10 09:47:15;;;;;;;19.42;13.35;;;;;;;16.48;55.87;101921.37;1730978;82;27511;-62
2022/11/10 09:50:05;;;;;;;27.95;14.50;;;;;;;16.53;53.85;101926.72;1713753;82;25689;-62
2022/11/10 09:52:52;;;;;;;22.80;13.93;;;;;;;16.65;54.52;101921.95;1727589;82;25766;-62
2022/11/10 09:55:44;;;;;;;20.05;12.45;;;;;;;17.18;52.55;101920.44;1727109;81;25864;-62
2022/11/10 09:58:40;;;;;;;29.98;13.88;;;;;;;17.31;53.71;101917.36;1726851;82;25833;-61
2022/11/10 10:01:50;;;;;;;25.25;13.60;;;;;;;17.98;53.70;101917.53;1729448;82;28389;-61
2022/11/10 10:04:50;;;;;;;22.80;11.90;;;;;;;18.97;52.98;101925.53;1720428;82;27188;-61
2022/11/10 10:07:47;;;;;;;19.32;11.90;;;;;;;19.82;50.50;101921.83;1738309;82;25818;-61
2022/11/10 10:10:43;;;;;;;25.70;11.85;;;;;;;20.63;46.64;101917.34;1743179;82;25836;-61
2022/11/10 10:14:01;;;;;;;15.10;10.58;;;;;;;21.21;46.72;101914.39;1743877;82;25726;-61
2022/11/10 10:17:00;;;;;;;22.98;11.20;;;;;;;21.92;44.27;101912.61;1744911;82;27528;-61
2022/11/10 10:19:59;;;;;;;17.12;11.08;;;;;;;22.42;41.79;101908.39;1747869;80;26136;-61
2022/11/10 10:23:03;;;;;;;19.40;11.00;;;;;;;22.93;41.24;101902.66;1748049;82;25656;-61
2022/11/10 10:25:49;;;;;;;;;;;;;;;23.50;39.17;101909.27;1746941;82;25818;-61
2022/11/10 10:28:41;;;;;;;18.17;10.40;;;;;;;23.59;38.36;101907.27;1745246;81;25741;-61
2022/11/10 10:31:43;;;;;;;16.02;10.48;;;;;;;23.60;40.65;101901.56;1712573;83;27474;-61
2022/11/10 10:34:33;;;;;;;17.10;11.08;;;;;;;23.96;38.29;101897.59;1735235;82;25755;-61
2022/11/10 10:37:29;;;;;;;19.17;10.40;;;;;;;24.30;37.11;101906.94;1717630;83;25760;-61
2022/11/10 10:40:18;;;;;;;17.07;9.23;;;;;;;24.41;37.15;101902.27;1745883;82;25945;-61
2022/11/10 10:43:04;;;;;;;18.45;9.45;;;;;;;24.95;36.35;101897.09;1743254;81;25728;-61
2022/11/10 10:45:57;;;;;;;13.03;8.65;;;;;;;25.15;35.72;101894.41;1742203;82;28400;-61
2022/11/10 10:48:42;;;;;;;14.00;8.15;;;;;;;25.42;35.25;101893.15;1741924;82;25760;-61
2022/11/10 10:51:30;;;;;;;14.60;9.45;;;;;;;25.72;34.88;101888.14;1743460;82;25751;-61
2022/11/10 10:54:30;;;;;;;13.62;8.78;;;;;;;26.03;34.29;101882.52;1746154;82;25805;-61
2022/11/10 10:57:30;;;;;;;13.88;8.18;;;;;;;26.22;34.11;101886.33;1748124;82;25783;-61
2022/11/10 11:00:23;;;;;;;15.05;8.63;;;;;;;26.44;35.25;101885.27;1747994;82;27493;-61
2022/11/10 11:03:43;;;;;;;12.78;8.25;;;;;;;26.95;31.99;101893.28;1736325;80;25771;-61
2022/11/10 11:06:32;;;;;;;12.85;8.00;;;;;;;26.72;33.28;101885.80;1742049;82;25708;-60
2022/11/10 11:09:27;;;;;;;16.10;8.55;;;;;;;26.82;33.66;101877.11;1745037;81;26493;-61
2022/11/10 11:12:23;;;;;;;18.07;8.65;;;;;;;27.04;32.79;101883.69;1722707;82;25468;-61
2022/11/10 11:15:29;;;;;;;15.32;8.33;;;;;;;27.04;32.61;101883.69;1744087;82;27827;-61
2022/11/10 11:18:19;;;;;;;16.85;8.13;;;;;;;27.00;32.52;101881.06;1744336;80;25799;-60
2022/11/10 11:21:19;;;;;;;13.20;7.83;;;;;;;26.99;31.91;101873.30;1744748;82;25755;-61
2022/11/10 11:24:24;;;;;;;14.55;8.15;;;;;;;26.79;31.57;101878.91;1715010;83;25808;-61
2022/11/10 11:27:44;;;;;;;19.75;8.08;;;;;;;26.50;31.87;101871.98;1715323;83;27297;-61
2022/11/10 11:30:51;;;;;;;14.23;8.60;;;;;;;25.98;32.49;101869.91;1715347;83;27532;-61
2022/11/10 11:33:54;;;;;;;27.20;8.33;;;;;;;25.62;32.60;101878.05;1742777;82;25751;-62
2022/11/10 11:37:18;;;;;;;16.07;8.43;;;;;;;25.14;33.54;101871.55;1745411;81;25731;-61
2022/11/10 11:40:17;;;;;;;17.02;8.35;;;;;;;24.78;34.29;101867.72;1745324;81;25848;-61
2022/11/10 11:43:20;;;;;;;15.88;8.65;;;;;;;24.54;34.54;101866.61;1744200;81;25819;-61
2022/11/10 11:46:34;;;;;;;23.00;8.50;;;;;;;24.34;34.78;101869.76;1743722;81;27479;-61
2022/11/10 11:49:51;;;;;;;16.50;8.63;;;;;;;24.17;34.93;101861.83;1743707;81;26085;-61
2022/11/10 11:52:47;;;;;;;16.23;8.58;;;;;;;23.92;35.11;101860.01;1743607;81;25751;-62
2022/11/10 11:55:49;;;;;;;18.70;9.93;;;;;;;23.64;35.42;101864.94;1743612;81;25852;-61
2022/11/10 11:59:07;;;;;;;16.80;9.10;;;;;;;23.37;35.72;101866.05;1754036;81;25776;-61
2022/11/10 12:02:24;;;;;;;18.60;9.38;;;;;;;22.95;36.17;101874.52;1753262;81;28276;-61
2022/11/10 12:05:57;;;;;;;13.98;8.13;;;;;;;22.69;36.81;101873.63;1743342;81;25748;-61
2022/11/10 12:09:20;;;;;;;22.48;9.33;;;;;;;22.48;37.05;101876.63;1733982;82;25455;-61
2022/11/10 12:12:20;;;;;;;22.70;9.80;;;;;;;22.13;37.59;101885.34;1734832;81;26657;-60
2022/11/10 12:15:50;;;;;;;13.32;9.75;;;;;;;21.79;38.08;101883.94;1735526;81;25727;-61
2022/11/10 12:18:43;;;;;;;15.83;9.60;;;;;;;21.54;38.63;101891.45;1724558;82;27550;-61
2022/11/10 12:22:12;;;;;;;15.32;8.68;;;;;;;21.50;38.77;101886.85;1725385;80;25674;-62
2022/11/10 12:25:31;;;;;;;25.05;9.95;;;;;;;21.39;39.02;101890.87;1738204;82;25716;-60
2022/11/10 12:28:27;;;;;;;25.45;9.58;;;;;;;21.30;39.50;101881.50;1734311;82;25794;-61
2022/11/10 12:31:17;;;;;;;21.60;9.40;;;;;;;21.03;39.84;101885.07;1735506;82;26462;-61
2022/11/10 12:34:39;;;;;;;15.70;9.98;;;;;;;20.74;40.43;101884.69;1734579;82;28567;-61
2022/11/10 12:37:41;;;;;;;16.77;10.08;;;;;;;20.46;40.82;101886.98;1626130;87;25931;-61
2022/11/10 12:40:43;;;;;;;16.00;10.75;;;;;;;20.17;41.37;101883.77;1735185;80;25749;-61
2022/11/10 12:43:40;;;;;;;18.02;10.55;;;;;;;19.96;41.74;101885.66;1728702;82;25806;-61
2022/11/10 12:46:25;;;;;;;21.97;11.75;;;;;;;19.81;41.99;101893.65;1734769;82;25795;-61
2022/11/10 12:49:25;;;;;;;19.75;10.05;;;;;;;19.39;42.92;101899.59;1723196;82;27581;-61
2022/11/10 12:52:27;;;;;;;27.48;10.75;;;;;;;19.00;43.45;101893.33;1727522;82;25838;-62
2022/11/10 12:55:14;;;;;;;27.35;11.15;;;;;;;18.77;44.29;101894.39;1733222;82;25761;-62
2022/11/10 12:58:00;;;;;;;25.27;10.15;;;;;;;18.43;45.03;101896.59;1719794;82;26407;-62
2022/11/10 13:01:00;;;;;;;23.85;10.03;;;;;;;18.19;45.48;101901.36;1712514;83;25824;-61
2022/11/10 13:03:58;;;;;;;20.55;10.48;;;;;;;18.11;45.47;101898.93;1712691;83;27546;-62
2022/11/10 13:06:51;;;;;;;19.37;10.70;;;;;;;18.15;45.75;101900.30;1729878;82;25525;-62
2022/11/10 13:09:42;;;;;;;21.07;9.90;;;;;;;18.10;46.00;101902.66;1741914;82;25470;-62
2022/11/10 13:12:27;;;;;;;17.75;8.88;;;;;;;18.07;46.31;101900.25;1744053;82;26664;-61
2022/11/10 13:15:41;;;;;;;29.45;10.15;;;;;;;17.99;46.25;101907.86;1743428;82;25747;-62
2022/11/10 13:18:34;;;;;;;20.82;10.90;;;;;;;17.98;46.19;101905.28;1760188;80;27552;-62
2022/11/10 13:21:53;;;;;;;18.57;10.00;;;;;;;17.96;46.42;101910.05;1739135;81;25942;-62